sensor_id;sensor_type;location;lat;lon;timestamp;temperature;humidity
42339;DHT22;27993;45.392;10.918;2022-12-07T00:02:04;3.10;99.90
42339;DHT22;27993;45.392;10.918;2022-12-07T00:04:34;3.20;99.90
42339;DHT22;27993;45.392;10.918;2022-12-07T00:07:05;3.10;99.90
42339;DHT22;27993;45.392;10.918;2022-12-07T00:09:36;3.40;99.90
42339;DHT22;27993;45.392;10.918;2022-12-07T00:12:06;3.20;99.90
42339;DHT22;27993;45.392;10.918;2022-12-07T00:14:37;3.20;99.90
42339;DHT22;27993;45.392;10.918;2022-12-07T00:17:07;3.50;99.90
42339;DHT22;27993;45.392;10.918;2022-12-07T00:19:38;3.70;99.90
42339;DHT22;27993;45.392;10.918;2022-12-07T00:22:09;3.60;99.90
42339;DHT22;27993;45.392;10.918;2022-12-07T00:24:39;3.70;99.90
42339;DHT22;27993;45.392;10.918;2022-12-07T00:27:10;3.80;99.90
42339;DHT22;27993;45.392;10.918;2022-12-07T00:29:40;3.90;99.90
42339;DHT22;27993;45.392;10.918;2022-12-07T00:32:11;3.90;99.90
42339;DHT22;27993;45.392;10.918;2022-12-07T00:34:41;4.00;99.90
42339;DHT22;27993;45.392;10.918;2022-12-07T00:37:12;4.10;99.90
42339;DHT22;27993;45.392;10.918;2022-12-07T00:39:43;4.00;99.90
42339;DHT22;27993;45.392;10.918;2022-12-07T00:42:13;4.00;99.90
42339;DHT22;27993;45.392;10.918;2022-12-07T00:44:44;4.00;99.90
42339;DHT22;27993;45.392;10.918;2022-12-07T00:47:15;3.90;99.90
42339;DHT22;27993;45.392;10.918;2022-12-07T00:49:45;3.90;99.90
42339;DHT22;27993;45.392;10.918;2022-12-07T00:52:16;4.00;99.90
42339;DHT22;27993;45.392;10.918;2022-12-07T00:54:46;3.90;99.90
42339;DHT22;27993;45.392;10.918;2022-12-07T00:57:17;4.00;99.90
42339;DHT22;27993;45.392;10.918;2022-12-07T00:59:48;3.90;99.90
42339;DHT22;27993;45.392;10.918;2022-12-07T01:02:19;3.90;99.90
42339;DHT22;27993;45.392;10.918;2022-12-07T01:04:49;3.70;99.90
42339;DHT22;27993;45.392;10.918;2022-12-07T01:07:20;3.70;99.90
42339;DHT22;27993;45.392;10.918;2022-12-07T01:09:51;3.50;99.90
42339;DHT22;27993;45.392;10.918;2022-12-07T01:12:21;3.50;99.90
42339;DHT22;27993;45.392;10.918;2022-12-07T01:14:52;3.50;99.90
42339;DHT22;27993;45.392;10.918;2022-12-07T01:17:22;3.50;99.90
42339;DHT22;27993;45.392;10.918;2022-12-07T01:19:53;3.40;99.90
42339;DHT22;27993;45.392;10.918;2022-12-07T01:22:23;3.40;99.90
42339;DHT22;27993;45.392;10.918;2022-12-07T01:24:54;3.20;99.90
42339;DHT22;27993;45.392;10.918;2022-12-07T01:27:25;3.20;99.90
42339;DHT22;27993;45.392;10.918;2022-12-07T01:29:55;3.30;99.90
42339;DHT22;27993;45.392;10.918;2022-12-07T01:32:26;3.40;99.90
42339;DHT22;27993;45.392;10.918;2022-12-07T01:34:57;3.40;99.90
42339;DHT22;27993;45.392;10.918;2022-12-07T01:37:27;3.40;99.90
42339;DHT22;27993;45.392;10.918;2022-12-07T01:39:58;3.20;99.90
42339;DHT22;27993;45.392;10.918;2022-12-07T01:42:28;3.00;99.90
42339;DHT22;27993;45.392;10.918;2022-12-07T01:47:54;3.00;99.90
42339;DHT22;27993;45.392;10.918;2022-12-07T01:50:28;2.90;99.90
42339;DHT22;27993;45.392;10.918;2022-12-07T01:53:04;2.90;99.90
42339;DHT22;27993;45.392;10.918;2022-12-07T01:55:40;2.90;99.90
42339;DHT22;27993;45.392;10.918;2022-12-07T01:58:12;3.00;99.90
42339;DHT22;27993;45.392;10.918;2022-12-07T02:00:43;2.90;99.90
42339;DHT22;27993;45.392;10.918;2022-12-07T02:03:31;2.90;99.90
42339;DHT22;27993;45.392;10.918;2022-12-07T02:06:02;2.60;99.90
42339;DHT22;27993;45.392;10.918;2022-12-07T02:08:35;2.80;99.90
42339;DHT22;27993;45.392;10.918;2022-12-07T02:11:06;3.00;99.90
42339;DHT22;27993;45.392;10.918;2022-12-07T02:13:39;2.80;99.90
42339;DHT22;27993;45.392;10.918;2022-12-07T02:24:48;2.10;99.90
42339;DHT22;27993;45.392;10.918;2022-12-07T02:27:47;2.10;99.90
42339;DHT22;27993;45.392;10.918;2022-12-07T02:30:20;2.30;99.90
42339;DHT22;27993;45.392;10.918;2022-12-07T02:33:10;2.50;99.90
42339;DHT22;27993;45.392;10.918;2022-12-07T02:35:51;2.40;99.90
42339;DHT22;27993;45.392;10.918;2022-12-07T02:41:17;2.80;99.90
42339;DHT22;27993;45.392;10.918;2022-12-07T02:43:55;2.70;99.90
42339;DHT22;27993;45.392;10.918;2022-12-07T02:46:31;2.70;99.90
42339;DHT22;27993;45.392;10.918;2022-12-07T02:49:03;2.80;99.90
42339;DHT22;27993;45.392;10.918;2022-12-07T02:51:39;2.90;99.90
42339;DHT22;27993;45.392;10.918;2022-12-07T02:54:17;2.90;99.90
42339;DHT22;27993;45.392;10.918;2022-12-07T03:02:38;2.80;99.90
42339;DHT22;27993;45.392;10.918;2022-12-07T03:05:17;2.90;99.90
42339;DHT22;27993;45.392;10.918;2022-12-07T03:07:56;2.90;99.90
42339;DHT22;27993;45.392;10.918;2022-12-07T03:18:45;3.00;99.90
42339;DHT22;27993;45.392;10.918;2022-12-07T03:21:23;3.10;99.90
42339;DHT22;27993;45.392;10.918;2022-12-07T03:23:57;3.00;99.90
42339;DHT22;27993;45.392;10.918;2022-12-07T03:26:32;2.70;99.90
42339;DHT22;27993;45.392;10.918;2022-12-07T03:29:14;2.80;99.90
42339;DHT22;27993;45.392;10.918;2022-12-07T03:31:54;2.80;99.90
42339;DHT22;27993;45.392;10.918;2022-12-07T03:34:36;2.90;99.90
42339;DHT22;27993;45.392;10.918;2022-12-07T03:37:10;2.80;99.90
42339;DHT22;27993;45.392;10.918;2022-12-07T03:43:10;2.50;99.90
42339;DHT22;27993;45.392;10.918;2022-12-07T03:45:44;2.70;99.90
42339;DHT22;27993;45.392;10.918;2022-12-07T03:48:27;2.40;99.90
42339;DHT22;27993;45.392;10.918;2022-12-07T03:53:58;2.50;99.90
42339;DHT22;27993;45.392;10.918;2022-12-07T03:56:32;2.30;99.90
42339;DHT22;27993;45.392;10.918;2022-12-07T03:59:03;2.50;99.90
42339;DHT22;27993;45.392;10.918;2022-12-07T04:01:34;2.50;99.90
42339;DHT22;27993;45.392;10.918;2022-12-07T04:04:04;2.30;99.90
42339;DHT22;27993;45.392;10.918;2022-12-07T04:06:35;2.40;99.90
42339;DHT22;27993;45.392;10.918;2022-12-07T04:09:06;2.40;99.90
42339;DHT22;27993;45.392;10.918;2022-12-07T04:11:36;2.50;99.90
42339;DHT22;27993;45.392;10.918;2022-12-07T04:14:07;2.80;99.90
42339;DHT22;27993;45.392;10.918;2022-12-07T04:16:52;3.00;99.90
42339;DHT22;27993;45.392;10.918;2022-12-07T04:19:27;2.80;99.90
42339;DHT22;27993;45.392;10.918;2022-12-07T04:22:00;2.70;99.90
42339;DHT22;27993;45.392;10.918;2022-12-07T04:24:31;2.60;99.90
42339;DHT22;27993;45.392;10.918;2022-12-07T04:27:02;2.60;99.90
42339;DHT22;27993;45.392;10.918;2022-12-07T04:29:33;2.80;99.90
42339;DHT22;27993;45.392;10.918;2022-12-07T04:32:04;2.90;99.90
42339;DHT22;27993;45.392;10.918;2022-12-07T04:34:34;3.00;99.90
42339;DHT22;27993;45.392;10.918;2022-12-07T04:37:05;3.00;99.90
42339;DHT22;27993;45.392;10.918;2022-12-07T04:39:35;3.10;99.90
42339;DHT22;27993;45.392;10.918;2022-12-07T04:42:06;3.10;99.90
42339;DHT22;27993;45.392;10.918;2022-12-07T04:44:37;3.20;99.90
42339;DHT22;27993;45.392;10.918;2022-12-07T04:47:07;3.00;99.90
42339;DHT22;27993;45.392;10.918;2022-12-07T04:49:38;3.10;99.90
42339;DHT22;27993;45.392;10.918;2022-12-07T04:52:09;3.20;99.90
42339;DHT22;27993;45.392;10.918;2022-12-07T04:54:39;3.30;99.90
42339;DHT22;27993;45.392;10.918;2022-12-07T04:57:10;3.20;99.90
42339;DHT22;27993;45.392;10.918;2022-12-07T04:59:59;3.30;99.90
42339;DHT22;27993;45.392;10.918;2022-12-07T05:02:30;3.30;99.90
42339;DHT22;27993;45.392;10.918;2022-12-07T05:05:00;3.10;99.90
42339;DHT22;27993;45.392;10.918;2022-12-07T05:07:31;2.90;99.90
42339;DHT22;27993;45.392;10.918;2022-12-07T05:10:02;3.10;99.90
42339;DHT22;27993;45.392;10.918;2022-12-07T05:12:32;3.20;99.90
42339;DHT22;27993;45.392;10.918;2022-12-07T05:15:04;3.20;99.90
42339;DHT22;27993;45.392;10.918;2022-12-07T05:17:34;3.00;99.90
42339;DHT22;27993;45.392;10.918;2022-12-07T05:20:06;3.00;99.90
42339;DHT22;27993;45.392;10.918;2022-12-07T05:22:36;3.00;99.90
42339;DHT22;27993;45.392;10.918;2022-12-07T05:25:07;2.60;99.90
42339;DHT22;27993;45.392;10.918;2022-12-07T05:27:38;2.70;99.90
42339;DHT22;27993;45.392;10.918;2022-12-07T05:30:09;2.80;99.90
42339;DHT22;27993;45.392;10.918;2022-12-07T05:32:40;2.90;99.90
42339;DHT22;27993;45.392;10.918;2022-12-07T05:35:10;2.90;99.90
42339;DHT22;27993;45.392;10.918;2022-12-07T05:37:41;2.70;99.90
42339;DHT22;27993;45.392;10.918;2022-12-07T05:40:12;2.60;99.90
42339;DHT22;27993;45.392;10.918;2022-12-07T05:42:43;2.60;99.90
42339;DHT22;27993;45.392;10.918;2022-12-07T05:45:13;2.70;99.90
42339;DHT22;27993;45.392;10.918;2022-12-07T05:47:44;2.70;99.90
42339;DHT22;27993;45.392;10.918;2022-12-07T05:50:15;2.80;99.90
42339;DHT22;27993;45.392;10.918;2022-12-07T05:52:45;2.80;99.90
42339;DHT22;27993;45.392;10.918;2022-12-07T05:55:16;2.70;99.90
42339;DHT22;27993;45.392;10.918;2022-12-07T05:57:46;2.80;99.90
42339;DHT22;27993;45.392;10.918;2022-12-07T06:00:35;2.50;99.90
42339;DHT22;27993;45.392;10.918;2022-12-07T06:03:06;2.50;99.90
42339;DHT22;27993;45.392;10.918;2022-12-07T06:05:37;2.60;99.90
42339;DHT22;27993;45.392;10.918;2022-12-07T06:08:07;2.60;99.90
42339;DHT22;27993;45.392;10.918;2022-12-07T06:10:38;2.70;99.90
42339;DHT22;27993;45.392;10.918;2022-12-07T06:13:09;2.40;99.90
42339;DHT22;27993;45.392;10.918;2022-12-07T06:15:39;2.60;99.90
42339;DHT22;27993;45.392;10.918;2022-12-07T06:18:10;2.60;99.90
42339;DHT22;27993;45.392;10.918;2022-12-07T06:20:41;2.70;99.90
42339;DHT22;27993;45.392;10.918;2022-12-07T06:23:11;2.70;99.90
42339;DHT22;27993;45.392;10.918;2022-12-07T06:25:45;2.80;99.90
42339;DHT22;27993;45.392;10.918;2022-12-07T06:28:16;2.70;99.90
42339;DHT22;27993;45.392;10.918;2022-12-07T06:30:46;2.70;99.90
42339;DHT22;27993;45.392;10.918;2022-12-07T06:33:17;2.70;99.90
42339;DHT22;27993;45.392;10.918;2022-12-07T06:35:47;2.60;99.90
42339;DHT22;27993;45.392;10.918;2022-12-07T06:38:18;2.70;99.90
42339;DHT22;27993;45.392;10.918;2022-12-07T06:40:49;2.60;99.90
42339;DHT22;27993;45.392;10.918;2022-12-07T06:43:19;2.50;99.90
42339;DHT22;27993;45.392;10.918;2022-12-07T06:45:50;2.50;99.90
42339;DHT22;27993;45.392;10.918;2022-12-07T06:48:21;2.40;99.90
42339;DHT22;27993;45.392;10.918;2022-12-07T06:50:51;2.20;99.90
42339;DHT22;27993;45.392;10.918;2022-12-07T06:53:22;2.10;99.90
42339;DHT22;27993;45.392;10.918;2022-12-07T06:55:53;2.30;99.90
42339;DHT22;27993;45.392;10.918;2022-12-07T06:58:24;2.10;99.90
42339;DHT22;27993;45.392;10.918;2022-12-07T07:00:54;2.10;99.90
42339;DHT22;27993;45.392;10.918;2022-12-07T07:03:25;2.20;99.90
42339;DHT22;27993;45.392;10.918;2022-12-07T07:05:55;2.20;99.90
42339;DHT22;27993;45.392;10.918;2022-12-07T07:08:26;2.20;99.90
42339;DHT22;27993;45.392;10.918;2022-12-07T07:10:57;2.50;99.90
42339;DHT22;27993;45.392;10.918;2022-12-07T07:13:27;2.50;99.90
42339;DHT22;27993;45.392;10.918;2022-12-07T07:15:58;2.40;99.90
42339;DHT22;27993;45.392;10.918;2022-12-07T07:18:29;2.30;99.90
42339;DHT22;27993;45.392;10.918;2022-12-07T07:21:00;2.40;99.90
42339;DHT22;27993;45.392;10.918;2022-12-07T07:23:31;2.60;99.90
42339;DHT22;27993;45.392;10.918;2022-12-07T07:26:02;2.60;99.90
42339;DHT22;27993;45.392;10.918;2022-12-07T07:28:32;2.70;99.90
42339;DHT22;27993;45.392;10.918;2022-12-07T07:31:03;2.70;99.90
42339;DHT22;27993;45.392;10.918;2022-12-07T07:33:34;2.60;99.90
42339;DHT22;27993;45.392;10.918;2022-12-07T07:36:05;2.80;99.90
42339;DHT22;27993;45.392;10.918;2022-12-07T07:38:35;2.80;99.90
42339;DHT22;27993;45.392;10.918;2022-12-07T07:41:06;2.90;99.90
42339;DHT22;27993;45.392;10.918;2022-12-07T07:43:37;3.00;99.90
42339;DHT22;27993;45.392;10.918;2022-12-07T07:46:07;3.00;99.90
42339;DHT22;27993;45.392;10.918;2022-12-07T07:48:38;3.00;99.90
42339;DHT22;27993;45.392;10.918;2022-12-07T07:51:08;3.00;99.90
42339;DHT22;27993;45.392;10.918;2022-12-07T07:53:39;3.00;99.90
42339;DHT22;27993;45.392;10.918;2022-12-07T07:56:09;3.00;99.90
42339;DHT22;27993;45.392;10.918;2022-12-07T07:58:40;3.00;99.90
42339;DHT22;27993;45.392;10.918;2022-12-07T08:01:11;3.20;99.90
42339;DHT22;27993;45.392;10.918;2022-12-07T08:03:43;3.10;99.90
42339;DHT22;27993;45.392;10.918;2022-12-07T08:06:15;3.30;99.90
42339;DHT22;27993;45.392;10.918;2022-12-07T08:08:45;3.30;99.90
42339;DHT22;27993;45.392;10.918;2022-12-07T08:11:16;3.30;99.90
42339;DHT22;27993;45.392;10.918;2022-12-07T08:13:47;3.40;99.90
42339;DHT22;27993;45.392;10.918;2022-12-07T08:16:18;3.50;99.90
42339;DHT22;27993;45.392;10.918;2022-12-07T08:18:48;3.40;99.90
42339;DHT22;27993;45.392;10.918;2022-12-07T08:21:19;3.30;99.90
42339;DHT22;27993;45.392;10.918;2022-12-07T08:23:50;3.30;99.90
42339;DHT22;27993;45.392;10.918;2022-12-07T08:26:20;3.40;99.90
42339;DHT22;27993;45.392;10.918;2022-12-07T08:28:52;3.50;99.90
42339;DHT22;27993;45.392;10.918;2022-12-07T08:31:24;3.80;99.90
42339;DHT22;27993;45.392;10.918;2022-12-07T08:33:55;3.90;99.90
42339;DHT22;27993;45.392;10.918;2022-12-07T08:36:26;3.90;99.90
42339;DHT22;27993;45.392;10.918;2022-12-07T08:38:56;3.90;99.90
42339;DHT22;27993;45.392;10.918;2022-12-07T08:41:27;4.20;99.90
42339;DHT22;27993;45.392;10.918;2022-12-07T08:43:57;4.30;99.90
42339;DHT22;27993;45.392;10.918;2022-12-07T08:46:42;4.20;99.90
42339;DHT22;27993;45.392;10.918;2022-12-07T08:49:20;4.20;99.90
42339;DHT22;27993;45.392;10.918;2022-12-07T08:51:54;4.30;99.90
42339;DHT22;27993;45.392;10.918;2022-12-07T08:54:25;4.60;99.90
42339;DHT22;27993;45.392;10.918;2022-12-07T08:56:57;4.40;99.90
42339;DHT22;27993;45.392;10.918;2022-12-07T08:59:28;4.40;99.90
42339;DHT22;27993;45.392;10.918;2022-12-07T09:01:59;4.40;99.90
42339;DHT22;27993;45.392;10.918;2022-12-07T09:04:29;4.50;99.90
42339;DHT22;27993;45.392;10.918;2022-12-07T09:07:00;4.50;99.90
42339;DHT22;27993;45.392;10.918;2022-12-07T09:09:31;4.80;99.90
42339;DHT22;27993;45.392;10.918;2022-12-07T09:12:02;4.70;99.90
42339;DHT22;27993;45.392;10.918;2022-12-07T09:14:33;4.70;99.90
42339;DHT22;27993;45.392;10.918;2022-12-07T09:17:12;4.60;99.90
42339;DHT22;27993;45.392;10.918;2022-12-07T09:19:43;4.70;99.90
42339;DHT22;27993;45.392;10.918;2022-12-07T09:22:13;4.50;99.90
42339;DHT22;27993;45.392;10.918;2022-12-07T09:24:44;4.40;99.90
42339;DHT22;27993;45.392;10.918;2022-12-07T09:27:15;4.40;99.90
42339;DHT22;27993;45.392;10.918;2022-12-07T09:29:48;4.40;99.90
42339;DHT22;27993;45.392;10.918;2022-12-07T09:32:18;4.50;99.90
42339;DHT22;27993;45.392;10.918;2022-12-07T09:34:49;4.50;99.90
42339;DHT22;27993;45.392;10.918;2022-12-07T09:37:20;4.60;99.90
42339;DHT22;27993;45.392;10.918;2022-12-07T09:39:51;4.80;99.90
42339;DHT22;27993;45.392;10.918;2022-12-07T09:42:38;4.90;99.90
42339;DHT22;27993;45.392;10.918;2022-12-07T09:45:15;4.90;99.90
42339;DHT22;27993;45.392;10.918;2022-12-07T09:47:46;4.90;99.90
42339;DHT22;27993;45.392;10.918;2022-12-07T09:50:23;5.00;99.90
42339;DHT22;27993;45.392;10.918;2022-12-07T09:53:00;5.00;99.90
42339;DHT22;27993;45.392;10.918;2022-12-07T09:55:35;5.00;99.90
42339;DHT22;27993;45.392;10.918;2022-12-07T09:58:19;5.10;99.90
42339;DHT22;27993;45.392;10.918;2022-12-07T10:00:54;5.10;99.90
42339;DHT22;27993;45.392;10.918;2022-12-07T10:03:27;5.10;99.90
42339;DHT22;27993;45.392;10.918;2022-12-07T10:05:58;5.20;99.90
42339;DHT22;27993;45.392;10.918;2022-12-07T10:08:29;5.40;99.90
42339;DHT22;27993;45.392;10.918;2022-12-07T10:11:03;5.50;99.90
42339;DHT22;27993;45.392;10.918;2022-12-07T10:13:42;5.60;99.90
42339;DHT22;27993;45.392;10.918;2022-12-07T10:16:32;5.70;99.90
42339;DHT22;27993;45.392;10.918;2022-12-07T10:19:31;5.70;99.90
42339;DHT22;27993;45.392;10.918;2022-12-07T10:22:13;5.80;99.90
42339;DHT22;27993;45.392;10.918;2022-12-07T10:24:46;5.80;99.90
42339;DHT22;27993;45.392;10.918;2022-12-07T10:27:30;6.00;99.90
42339;DHT22;27993;45.392;10.918;2022-12-07T10:30:07;6.00;99.90
42339;DHT22;27993;45.392;10.918;2022-12-07T10:32:40;6.10;99.90
42339;DHT22;27993;45.392;10.918;2022-12-07T10:35:28;6.00;99.90
42339;DHT22;27993;45.392;10.918;2022-12-07T10:38:00;6.10;99.90
42339;DHT22;27993;45.392;10.918;2022-12-07T10:43:04;6.30;99.90
42339;DHT22;27993;45.392;10.918;2022-12-07T10:45:36;6.40;99.90
42339;DHT22;27993;45.392;10.918;2022-12-07T10:51:20;6.00;99.90
42339;DHT22;27993;45.392;10.918;2022-12-07T10:54:12;6.00;99.90
42339;DHT22;27993;45.392;10.918;2022-12-07T11:02:02;6.40;99.90
42339;DHT22;27993;45.392;10.918;2022-12-07T11:05:01;6.20;99.90
42339;DHT22;27993;45.392;10.918;2022-12-07T11:10:49;6.60;99.90
42339;DHT22;27993;45.392;10.918;2022-12-07T11:13:47;6.50;99.90
42339;DHT22;27993;45.392;10.918;2022-12-07T11:16:19;6.80;99.90
42339;DHT22;27993;45.392;10.918;2022-12-07T11:19:20;7.20;99.90
42339;DHT22;27993;45.392;10.918;2022-12-07T11:25:40;6.90;99.90
42339;DHT22;27993;45.392;10.918;2022-12-07T11:34:00;6.80;99.90
42339;DHT22;27993;45.392;10.918;2022-12-07T11:36:44;6.80;99.90
42339;DHT22;27993;45.392;10.918;2022-12-07T11:42:00;6.70;99.90
42339;DHT22;27993;45.392;10.918;2022-12-07T11:47:30;7.50;99.90
42339;DHT22;27993;45.392;10.918;2022-12-07T11:53:02;8.60;99.90
42339;DHT22;27993;45.392;10.918;2022-12-07T12:03:50;9.10;99.90
42339;DHT22;27993;45.392;10.918;2022-12-07T12:06:21;9.30;99.90
42339;DHT22;27993;45.392;10.918;2022-12-07T12:09:00;9.30;99.90
42339;DHT22;27993;45.392;10.918;2022-12-07T12:23:11;10.00;99.90
42339;DHT22;27993;45.392;10.918;2022-12-07T12:25:47;10.00;99.90
42339;DHT22;27993;45.392;10.918;2022-12-07T12:33:42;10.00;99.90
42339;DHT22;27993;45.392;10.918;2022-12-07T12:36:17;10.00;99.90
42339;DHT22;27993;45.392;10.918;2022-12-07T12:46:49;10.00;99.90
42339;DHT22;27993;45.392;10.918;2022-12-07T12:51:58;10.00;99.90
42339;DHT22;27993;45.392;10.918;2022-12-07T12:54:31;10.10;99.90
42339;DHT22;27993;45.392;10.918;2022-12-07T13:02:27;9.90;99.90
42339;DHT22;27993;45.392;10.918;2022-12-07T13:15:50;9.60;99.90
42339;DHT22;27993;45.392;10.918;2022-12-07T13:26:18;9.50;99.90
42339;DHT22;27993;45.392;10.918;2022-12-07T13:31:49;9.60;99.90
42339;DHT22;27993;45.392;10.918;2022-12-07T13:34:34;9.50;99.90
42339;DHT22;27993;45.392;10.918;2022-12-07T13:37:27;9.60;99.90
42339;DHT22;27993;45.392;10.918;2022-12-07T13:40:18;9.50;99.90
42339;DHT22;27993;45.392;10.918;2022-12-07T13:42:58;9.60;99.90
42339;DHT22;27993;45.392;10.918;2022-12-07T13:45:30;9.70;99.90
42339;DHT22;27993;45.392;10.918;2022-12-07T13:48:30;9.60;99.90
42339;DHT22;27993;45.392;10.918;2022-12-07T13:51:03;9.40;99.90
42339;DHT22;27993;45.392;10.918;2022-12-07T13:53:34;9.40;99.90
42339;DHT22;27993;45.392;10.918;2022-12-07T13:56:16;9.30;99.90
42339;DHT22;27993;45.392;10.918;2022-12-07T13:58:46;9.10;99.90
42339;DHT22;27993;45.392;10.918;2022-12-07T14:01:17;9.20;99.90
42339;DHT22;27993;45.392;10.918;2022-12-07T14:03:48;9.20;99.90
42339;DHT22;27993;45.392;10.918;2022-12-07T14:06:20;9.00;99.90
42339;DHT22;27993;45.392;10.918;2022-12-07T14:09:15;9.00;99.90
42339;DHT22;27993;45.392;10.918;2022-12-07T14:11:48;8.90;99.90
42339;DHT22;27993;45.392;10.918;2022-12-07T14:14:23;8.80;99.90
42339;DHT22;27993;45.392;10.918;2022-12-07T14:16:57;8.70;99.90
42339;DHT22;27993;45.392;10.918;2022-12-07T14:19:44;8.80;99.90
42339;DHT22;27993;45.392;10.918;2022-12-07T14:25:17;8.70;99.90
42339;DHT22;27993;45.392;10.918;2022-12-07T14:27:59;8.60;99.90
42339;DHT22;27993;45.392;10.918;2022-12-07T14:30:32;8.50;99.90
42339;DHT22;27993;45.392;10.918;2022-12-07T14:33:04;8.50;99.90
42339;DHT22;27993;45.392;10.918;2022-12-07T14:35:37;8.60;99.90
42339;DHT22;27993;45.392;10.918;2022-12-07T14:38:10;8.50;99.90
42339;DHT22;27993;45.392;10.918;2022-12-07T14:40:41;8.60;99.90
42339;DHT22;27993;45.392;10.918;2022-12-07T14:43:13;8.70;99.90
42339;DHT22;27993;45.392;10.918;2022-12-07T14:45:44;8.60;99.90
42339;DHT22;27993;45.392;10.918;2022-12-07T14:48:15;8.40;99.90
42339;DHT22;27993;45.392;10.918;2022-12-07T14:50:50;8.50;99.90
42339;DHT22;27993;45.392;10.918;2022-12-07T14:53:28;8.40;99.90
42339;DHT22;27993;45.392;10.918;2022-12-07T14:55:59;8.30;99.90
42339;DHT22;27993;45.392;10.918;2022-12-07T14:58:30;8.30;99.90
42339;DHT22;27993;45.392;10.918;2022-12-07T15:01:01;8.20;99.90
42339;DHT22;27993;45.392;10.918;2022-12-07T15:03:31;8.10;99.90
42339;DHT22;27993;45.392;10.918;2022-12-07T15:06:05;8.10;99.90
42339;DHT22;27993;45.392;10.918;2022-12-07T15:08:36;7.80;99.90
42339;DHT22;27993;45.392;10.918;2022-12-07T15:11:12;7.90;99.90
42339;DHT22;27993;45.392;10.918;2022-12-07T15:13:42;7.70;99.90
42339;DHT22;27993;45.392;10.918;2022-12-07T15:16:31;7.60;99.90
42339;DHT22;27993;45.392;10.918;2022-12-07T15:19:02;7.60;99.90
42339;DHT22;27993;45.392;10.918;2022-12-07T15:21:33;7.50;99.90
42339;DHT22;27993;45.392;10.918;2022-12-07T15:24:04;7.40;99.90
42339;DHT22;27993;45.392;10.918;2022-12-07T15:26:34;7.30;99.90
42339;DHT22;27993;45.392;10.918;2022-12-07T15:29:06;7.30;99.90
42339;DHT22;27993;45.392;10.918;2022-12-07T15:31:37;7.20;99.90
42339;DHT22;27993;45.392;10.918;2022-12-07T15:34:08;7.10;99.90
42339;DHT22;27993;45.392;10.918;2022-12-07T15:36:38;7.10;99.90
42339;DHT22;27993;45.392;10.918;2022-12-07T15:39:09;7.10;99.90
42339;DHT22;27993;45.392;10.918;2022-12-07T15:41:40;7.00;99.90
42339;DHT22;27993;45.392;10.918;2022-12-07T15:44:14;6.90;99.90
42339;DHT22;27993;45.392;10.918;2022-12-07T15:47:04;6.90;99.90
42339;DHT22;27993;45.392;10.918;2022-12-07T15:49:35;6.90;99.90
42339;DHT22;27993;45.392;10.918;2022-12-07T15:52:06;6.80;99.90
42339;DHT22;27993;45.392;10.918;2022-12-07T15:54:36;6.80;99.90
42339;DHT22;27993;45.392;10.918;2022-12-07T15:57:07;6.70;99.90
42339;DHT22;27993;45.392;10.918;2022-12-07T15:59:37;6.70;99.90
42339;DHT22;27993;45.392;10.918;2022-12-07T16:02:09;6.60;99.90
42339;DHT22;27993;45.392;10.918;2022-12-07T16:04:40;6.60;99.90
42339;DHT22;27993;45.392;10.918;2022-12-07T16:07:11;6.50;99.90
42339;DHT22;27993;45.392;10.918;2022-12-07T16:09:42;6.50;99.90
42339;DHT22;27993;45.392;10.918;2022-12-07T16:12:13;6.50;99.90
42339;DHT22;27993;45.392;10.918;2022-12-07T16:14:44;6.40;99.90
42339;DHT22;27993;45.392;10.918;2022-12-07T16:17:14;6.30;99.90
42339;DHT22;27993;45.392;10.918;2022-12-07T16:19:45;6.30;99.90
42339;DHT22;27993;45.392;10.918;2022-12-07T16:22:16;6.20;99.90
42339;DHT22;27993;45.392;10.918;2022-12-07T16:24:46;6.20;99.90
42339;DHT22;27993;45.392;10.918;2022-12-07T16:27:17;6.10;99.90
42339;DHT22;27993;45.392;10.918;2022-12-07T16:29:48;6.10;99.90
42339;DHT22;27993;45.392;10.918;2022-12-07T16:32:18;6.10;99.90
42339;DHT22;27993;45.392;10.918;2022-12-07T16:34:49;6.10;99.90
42339;DHT22;27993;45.392;10.918;2022-12-07T16:37:19;6.10;99.90
42339;DHT22;27993;45.392;10.918;2022-12-07T16:39:50;6.10;99.90
42339;DHT22;27993;45.392;10.918;2022-12-07T16:42:20;6.00;99.90
42339;DHT22;27993;45.392;10.918;2022-12-07T16:44:51;6.00;99.90
42339;DHT22;27993;45.392;10.918;2022-12-07T16:47:22;5.90;99.90
42339;DHT22;27993;45.392;10.918;2022-12-07T16:49:52;5.80;99.90
42339;DHT22;27993;45.392;10.918;2022-12-07T16:52:23;5.80;99.90
42339;DHT22;27993;45.392;10.918;2022-12-07T16:54:54;5.80;99.90
42339;DHT22;27993;45.392;10.918;2022-12-07T16:57:24;5.70;99.90
42339;DHT22;27993;45.392;10.918;2022-12-07T16:59:55;5.60;99.90
42339;DHT22;27993;45.392;10.918;2022-12-07T17:02:26;5.50;99.90
42339;DHT22;27993;45.392;10.918;2022-12-07T17:04:56;5.50;99.90
42339;DHT22;27993;45.392;10.918;2022-12-07T17:07:27;5.40;99.90
42339;DHT22;27993;45.392;10.918;2022-12-07T17:09:57;5.40;99.90
42339;DHT22;27993;45.392;10.918;2022-12-07T17:12:28;5.40;99.90
42339;DHT22;27993;45.392;10.918;2022-12-07T17:14:59;5.30;99.90
42339;DHT22;27993;45.392;10.918;2022-12-07T17:17:54;5.30;99.90
42339;DHT22;27993;45.392;10.918;2022-12-07T17:20:27;5.00;99.90
42339;DHT22;27993;45.392;10.918;2022-12-07T17:22:57;4.90;99.90
42339;DHT22;27993;45.392;10.918;2022-12-07T17:25:28;4.90;99.90
42339;DHT22;27993;45.392;10.918;2022-12-07T17:27:58;4.80;99.90
42339;DHT22;27993;45.392;10.918;2022-12-07T17:30:29;4.70;99.90
42339;DHT22;27993;45.392;10.918;2022-12-07T17:33:00;4.60;99.90
42339;DHT22;27993;45.392;10.918;2022-12-07T17:35:30;4.50;99.90
42339;DHT22;27993;45.392;10.918;2022-12-07T17:38:01;4.50;99.90
42339;DHT22;27993;45.392;10.918;2022-12-07T17:40:31;4.50;99.90
42339;DHT22;27993;45.392;10.918;2022-12-07T17:43:02;4.60;99.90
42339;DHT22;27993;45.392;10.918;2022-12-07T17:45:33;4.60;99.90
42339;DHT22;27993;45.392;10.918;2022-12-07T17:48:04;4.50;99.90
42339;DHT22;27993;45.392;10.918;2022-12-07T17:50:34;4.50;99.90
42339;DHT22;27993;45.392;10.918;2022-12-07T17:53:24;4.60;99.90
42339;DHT22;27993;45.392;10.918;2022-12-07T17:55:55;4.50;99.90
42339;DHT22;27993;45.392;10.918;2022-12-07T17:58:25;4.40;99.90
42339;DHT22;27993;45.392;10.918;2022-12-07T18:00:56;4.40;99.90
42339;DHT22;27993;45.392;10.918;2022-12-07T18:03:26;4.30;99.90
42339;DHT22;27993;45.392;10.918;2022-12-07T18:05:59;4.30;99.90
42339;DHT22;27993;45.392;10.918;2022-12-07T18:08:34;4.20;99.90
42339;DHT22;27993;45.392;10.918;2022-12-07T18:11:06;4.10;99.90
42339;DHT22;27993;45.392;10.918;2022-12-07T18:13:36;4.10;99.90
42339;DHT22;27993;45.392;10.918;2022-12-07T18:16:16;4.20;99.90
42339;DHT22;27993;45.392;10.918;2022-12-07T18:18:47;4.10;99.90
42339;DHT22;27993;45.392;10.918;2022-12-07T18:21:21;4.10;99.90